Terminal Aerodrome Forecast
Issued by NWS Riverton, WY

Home | Current Version | Previous Version | Text Only | Print | Product List | Glossary On
Versions: 1 2 3 4 5 6 7 8 9 10 11 12 13
000
FTUS45 KRIW 281100
TAFRIW
TAF
KRIW 281121Z 2812/2912 32006KT P6SM SCT080 BKN150
     FM281900 33009KT P6SM -SHRA SCT040 BKN060
     FM282100 VRB10G17KT P6SM -SHRA VCTS SCT040 BKN070CB
     FM290200 34008KT P6SM -SHRA BKN030 OVC040
     FM290600 02007KT P6SM VCSH FEW008 SCT015 OVC030=

USA.gov is the U.S. government's official web portal to all federal, state and local government web resources and services.